Tiempo atmosférico en la estación meteorológica de Jimena de la Frontera, Cádiz (50 m.)



Fecha
DESCASC
Temp. máxima en grados centígrados (hora)
DESCASC
Temp. mínima en grados centígrados (hora)
DESCASC
Temp. media en grados centígrados
DESCASC
Racha de viento máxima en m/sg (hora)
DESCASC
Velocidad máxima media en intervalos de 10 minutos(hora)
DESCASC
Precipitaciones diarias en mm
DESCASC
Precipitaciones de 00:00 a 06:00 en mm
DESCASC
Precipitaciones de 06:00 a 12:00 en mm
DESCASC
Precipitaciones de 12:00 a 18:00 en mm
DESCASC
Precipitaciones de 18:00 a 24:00 en mm
DESCASC
22-04-2019 24 (15:30) 10.5 (03:30) 17.3 11.39 (18:30) 6.67 (19:00) 0.2 0.2 0 0 0
21-04-2019 20.8 (18:20) 8.7 (07:20) 14.7 6.11 (13:10) 3.89 (13:00) 2.2 0 0 0.2 2
20-04-2019 23.4 (13:40) 6.7 (07:00) 15 11.11 (16:00) 6.67 (16:00) 0.2 0 0 0.2 0
19-04-2019 21 (13:00) 6.7 (07:40) 13.8 8.89 (14:00) 4.44 (14:00) 1 0 0.2 0.6 0.2
18-04-2019 20.8 (17:40) 9.9 (00:00) 15.3 9.17 (19:40) 5.28 (17:00) 5.4 0.2 5 0.2 0
17-04-2019 18.7 (14:00) 10.1 (00:00) 14.4 13.06 (05:40) 6.67 (13:30) 1 0 0 0 1
16-04-2019 24.7 (13:30) 7.8 (00:00) 16.3 10.28 (16:40) 6.11 (16:40) 0 0 0 0 0
15-04-2019 28.5 (14:30) 7.9 (00:00) 18.2 12.5 (19:00) 7.5 (18:50) 0 0 0 0 0
14-04-2019 28 (15:50) 7.9 (00:00) 18 6.94 (16:20) 3.61 (17:10) 0 0 0 0 0
13-04-2019 25.4 (14:10) 5.6 (00:00) 15.5 11.11 (18:30) 6.39 (18:40) 0 0 0 0 0
12-04-2019 24.6 (16:50) 5.8 (00:00) 15.2 10 (16:30) 5.56 (15:10) 0 0 0 0 0
11-04-2019 21.7 (18:10) 5 (00:00) 13.4 10.83 (15:20) 6.11 (15:30) 0 0 0 0 0
10-04-2019 20.1 (17:40) 8.8 (00:00) 14.5 13.61 (12:00) 7.78 (12:20) 0 0 0 0 0
09-04-2019 19.8 (16:10) 7.5 (00:00) 13.6 11.11 (16:20) 6.67 (16:20) 0.4 0 0.2 0.2 0
08-04-2019 19.7 (14:10) 11.8 (00:00) 15.8 11.39 (16:30) 6.39 (15:20) 1.8 0.6 0.2 0.2 0.8
07-04-2019 16 (14:30) 9.6 (00:00) 12.8 10.56 (00:40) 5.56 (14:40) 13.8 1.6 0.2 1.6 10.4
06-04-2019 15.9 (17:50) 7.9 (00:00) 11.9 11.67 (13:40) 6.67 (13:40) 5.2 0.6 2.8 1.8 0
05-04-2019 15.5 (16:50) 6.9 (00:00) 11.2 15.56 (17:00) 8.61 (17:30) 10.4 0 8.2 2 0.2
04-04-2019 20 (15:10) 5.1 (00:00) 12.5 11.11 (18:40) 6.67 (18:40) 0 0 0 0 0
03-04-2019 25 (13:50) 6.3 (00:00) 15.7 9.72 (20:10) 5.28 (19:50) 0 0 0 0 0
02-04-2019 23.2 (14:20) 5.4 (00:00) 14.3 5.83 (15:50) 3.89 (16:00) 0.2 0 0.2 0 0
01-04-2019 20.8 (17:40) 9.9 (00:00) 15.3 6.39 (18:00) 4.17 (18:00) 13.4 0.4 10 3 0
31-03-2019 21.9 (15:10) 12.4 (00:00) 17.1 6.94 (05:00) 3.89 (19:10) 5.6 3.2 1.8 0.6 0
30-03-2019 18.1 (12:00) 13.6 (00:00) 15.9 14.44 (10:50) 7.5 (10:40) 0 0 0 0 0
29-03-2019 18.3 (14:50) 13.3 (00:00) 15.8 14.72 (12:10) 8.61 (12:10) 0 0 0 0 0
28-03-2019 17.6 (13:10) 12.7 (00:00) 15.2 17.78 (13:50) 11.11 (13:50) 0 0 0 0 0
27-03-2019 17.9 (14:30) 13.6 (00:00) 15.8 20.83 (02:30) 11.11 (10:40) 0 0 0 0 0
26-03-2019 19.7 (12:00) 15.1 (00:00) 17.4 17.22 (22:20) 10.56 (22:20) 0 0 0 0 0
25-03-2019 19.4 (13:20) 14.5 (00:00) 16.9 14.17 (14:10) 7.78 (12:50) 0 0 0 0 0

Gráficas

Temp. máximas Temp. mínimas Temp. medias Precipitaciones Rachas de viento máximas Velocidades máximas media en intervalos de 10 minutos

Datos horarios

Fecha y hora oficial Temperatura (ºC) Velocidad del viento (km/h) Dirección del viento Racha (km/h) Dirección de racha Precipitación (mm) Presión (hPa) Tendencia (hPa) Humedad (%)
2019-04-23 23:00:00 12.6 6 Oeste 22 Oeste 0 -- -- 72
2019-04-23 22:00:00 13.2 13 Oeste 30 Oeste 0 -- -- 67
2019-04-23 21:00:00 14 17 Oeste 32 Oeste 0 -- -- 62
2019-04-23 20:00:00 15.4 15 Oeste 38 Oeste 0 -- -- 56
2019-04-23 19:00:00 17 17 Oeste 35 Noroeste 0 -- -- 53
2019-04-23 18:00:00 17 24 Oeste 43 Oeste 0 -- -- 50
2019-04-23 17:00:00 16.9 19 Oeste 44 Oeste 0 -- -- 49
2019-04-23 16:00:00 17.6 21 Oeste 48 Sudoeste 0 -- -- 50
2019-04-23 15:00:00 17.7 21 Noroeste 39 Oeste 0 -- -- 49
2019-04-23 14:00:00 17.4 16 Noroeste 36 Oeste 0 -- -- 52
2019-04-23 13:00:00 16.1 19 Noroeste 36 Noroeste 0 -- -- 57
2019-04-23 12:00:00 14.7 15 Noroeste 40 Noroeste 0 -- -- 64
2019-04-23 11:00:00 12.7 12 Noroeste 23 Noroeste 0 -- -- 79
2019-04-23 10:00:00 10.9 8 Norte 32 Noroeste 1 -- -- 87
2019-04-23 09:00:00 12.3 10 Noroeste 24 Noroeste 0.2 -- -- 89
2019-04-23 08:00:00 13.1 11 Noroeste 27 Oeste 4.2 -- -- 91
2019-04-23 07:00:00 14.1 4 Sur 27 Sudoeste 1 -- -- 90
2019-04-23 06:00:00 15.2 6 Oeste 21 Oeste 0 -- -- 80
2019-04-23 05:00:00 15.5 12 Oeste 27 Oeste 0 -- -- 77
2019-04-23 04:00:00 15.7 13 Oeste 25 Noroeste 0 -- -- 76
2019-04-23 03:00:00 15.9 9 Oeste 19 Oeste 0 -- -- 78
2019-04-23 02:00:00 15.7 6 Oeste 18 Oeste 0 -- -- 79
2019-04-23 01:00:00 15.7 4 Noroeste 17 Oeste 0 -- -- 80
2019-04-23 00:00:00 15.9 7 Oeste 21 Oeste 0 -- -- 78
2019-04-22 23:00:00 16.1 9 Oeste 19 Oeste 0 -- -- 78
2019-04-22 22:00:00 16 7 Sudoeste 27 Oeste 0 -- -- 79
2019-04-22 21:00:00 16.8 16 Oeste 39 Oeste 0 -- -- 74
2019-04-22 20:00:00 18.6 17 Oeste 38 Oeste 0 -- -- 68
2019-04-22 19:00:00 20.5 24 Oeste 41 Oeste 0 -- -- 61
2019-04-22 18:00:00 22.1 23 Oeste 37 Oeste 0 -- -- 59
2019-04-22 17:00:00 23.2 22 Oeste 37 Sudoeste 0 -- -- 55
2019-04-22 16:00:00 22.8 21 Oeste 40 Oeste 0 -- -- 57
2019-04-22 15:00:00 23.9 18 Oeste 29 Oeste 0 -- -- 54
2019-04-22 14:00:00 22.1 20 Oeste 35 Oeste 0 -- -- 54
2019-04-22 13:00:00 20.4 17 Oeste 27 Sudoeste 0 -- -- 57
2019-04-22 12:00:00 19.3 19 Oeste 31 Oeste 0 -- -- 57
2019-04-22 11:00:00 21 5 Oeste 13 Oeste 0 -- -- 54
2019-04-22 10:00:00 18.2 3 Sudoeste 8 Noroeste 0 -- -- 70
2019-04-22 09:00:00 12.8 5 Sur 9 Sur 0 -- -- 86
2019-04-22 08:00:00 11.7 2 Sudeste 9 Norte 0 -- -- 87
2019-04-22 07:00:00 12.6 5 Norte 15 Noroeste 0 -- -- 82
2019-04-22 06:00:00 12.4 5 Norte 15 Norte 0 -- -- 83
2019-04-22 05:00:00 10.6 4 Nordeste 13 Este 0 -- -- 93
2019-04-22 04:00:00 12.5 7 Nordeste 14 Noroeste 0 -- -- 84
2019-04-22 03:00:00 11.3 5 Noroeste 12 Noroeste 0.2 -- -- 92
2019-04-22 02:00:00 11.2 8 Norte 11 Norte 0 -- -- 97
2019-04-22 01:00:00 11.4 2 Nordeste 10 Norte 0 -- -- 98
2019-04-22 00:00:00 12.3 3 Norte 8 Nordeste 0 -- -- 98
2019-04-21 23:00:00 13.5 4 Este 6 Este 0 -- -- 97
2019-04-21 22:00:00 14.3 0 Calma 4 Sudeste 0 -- -- 95
2019-04-21 21:00:00 14.7 3 Noroeste 15 Este 0.4 -- -- 93
2019-04-21 20:00:00 15.6 3 Sudeste 16 Este 1.6 -- -- 88
2019-04-21 19:00:00 18.8 8 Este 17 Nordeste 0 -- -- 67
2019-04-21 18:00:00 20 5 Oeste 14 Oeste 0 -- -- 66
2019-04-21 17:00:00 19.3 6 Oeste 16 Oeste 0 -- -- 68
2019-04-21 16:00:00 19.5 9 Oeste 18 Noroeste 0 -- -- 67
2019-04-21 15:00:00 19.3 11 Oeste 22 Oeste 0 -- -- 70
2019-04-21 14:00:00 20.1 14 Oeste 22 Noroeste 0 -- -- 65
2019-04-21 13:00:00 19.7 14 Oeste 22 Oeste 0.2 -- -- 62
2019-04-21 12:00:00 18.9 6 Oeste 13 Sudoeste 0 -- -- 67
2019-04-21 11:00:00 18.2 3 Oeste 7 Oeste 0 -- -- 73
2019-04-21 10:00:00 15.8 0 Calma 4 Oeste 0 -- -- 81
2019-04-21 09:00:00 11.3 0 Calma 5 Nordeste 0 -- -- 98
2019-04-21 08:00:00 8.8 4 Norte 6 Oeste 0 -- -- 99
2019-04-21 07:00:00 8.8 3 Norte 6 Este 0 -- -- 98
2019-04-21 06:00:00 9.2 3 Este 8 Nordeste 0 -- -- 97
2019-04-21 05:00:00 9.9 4 Nordeste 8 Nordeste 0 -- -- 97
2019-04-21 04:00:00 11.2 0 Calma 6 Nordeste 0 -- -- 97
2019-04-21 03:00:00 12.5 2 Noroeste 7 Este 0 -- -- 96
2019-04-21 02:00:00 13.1 0 Calma 5 Nordeste 0 -- -- 96
2019-04-21 01:00:00 13.4 2 Norte 5 Norte 0 -- -- 95
2019-04-21 00:00:00 13.9 3 Nordeste 7 Norte 0 -- -- 94
2019-04-20 23:00:00 14.3 2 Nordeste 12 Sudeste 0 -- -- 92
2019-04-20 22:00:00 15.2 5 Sudeste 14 Sudeste 0 -- -- 81
2019-04-20 21:00:00 15.9 10 Sudeste 21 Sudeste 0 -- -- 75
2019-04-20 20:00:00 16.9 9 Sudeste 22 Sudeste 0 -- -- 72
2019-04-20 19:00:00 19.5 10 Sudeste 17 Sudeste 0 -- -- 60
2019-04-20 18:00:00 18.9 6 Sur 24 Este 0 -- -- 64
2019-04-20 17:00:00 18.2 21 Este 40 Este 0 -- -- 61
2019-04-20 16:00:00 18.9 24 Este 40 Este 0.2 -- -- 58
2019-04-20 15:00:00 20.3 17 Este 31 Sudeste 0 -- -- 54
2019-04-20 14:00:00 23 9 Sudeste 19 Sudeste 0 -- -- 46
2019-04-20 13:00:00 22.3 5 Sudoeste 10 Oeste 0 -- -- 45
2019-04-20 12:00:00 19.7 4 Oeste 9 Noroeste 0 -- -- 59
2019-04-20 11:00:00 15.4 3 Noroeste 5 Noroeste 0 -- -- 79
2019-04-20 10:00:00 11.8 2 Oeste 6 Nordeste 0 -- -- 93
2019-04-20 09:00:00 8.4 3 Nordeste 8 Este 0 -- -- 99
2019-04-20 08:00:00 7.2 2 Norte 9 Nordeste 0 -- -- 99
2019-04-20 07:00:00 6.7 4 Este 7 Este 0 -- -- 98
2019-04-20 06:00:00 7.2 0 Calma 8 Norte 0 -- -- 98
2019-04-20 05:00:00 7.1 3 Nordeste 8 Nordeste 0 -- -- 98
2019-04-20 04:00:00 7.4 5 Nordeste 6 Nordeste 0 -- -- 97
2019-04-20 03:00:00 8.5 5 Nordeste 9 Nordeste 0 -- -- 96
2019-04-20 02:00:00 9.4 4 Nordeste 8 Nordeste 0 -- -- 96
2019-04-20 01:00:00 9.8 7 Nordeste 8 Nordeste 0 -- -- 95
2019-04-20 00:00:00 11.8 2 Sudeste 6 Noroeste 0 -- -- 90
2019-04-19 23:00:00 13.6 3 Norte 20 Norte 0.2 -- -- 81
2019-04-19 22:00:00 13.3 0 Calma 11 Norte 0 -- -- 89
2019-04-19 21:00:00 15 0 Calma 5 Sudoeste 0 -- -- 86
2019-04-19 20:00:00 16.5 0 Calma 4 Oeste 0 -- -- 81
2019-04-19 19:00:00 17.9 3 Noroeste 10 Norte 0 -- -- 75
2019-04-19 18:00:00 18.8 7 Norte 12 Norte 0 -- -- 68
2019-04-19 17:00:00 15.7 5 Noroeste 15 Norte 0.4 -- -- 81
2019-04-19 16:00:00 15 10 Norte 19 Noroeste 0.2 -- -- 82
2019-04-19 15:00:00 18.7 5 Sudeste 27 Oeste 0 -- -- 65
2019-04-19 14:00:00 18 16 Oeste 32 Oeste 0 -- -- 61
2019-04-19 13:00:00 21 9 Noroeste 26 Oeste 0 -- -- 52
2019-04-19 12:00:00 19.7 14 Oeste 27 Oeste 0 -- -- 59
2019-04-19 11:00:00 17.7 3 Noroeste 10 Oeste 0.2 -- -- 73
2019-04-19 10:00:00 14.8 2 Oeste 4 Noroeste 0 -- -- 76
2019-04-19 09:00:00 11.1 2 Nordeste 6 Norte 0 -- -- 93
2019-04-19 08:00:00 6.8 0 Calma 8 Nordeste 0 -- -- 99
2019-04-19 07:00:00 7.3 2 Este 4 Este 0 -- -- 98
2019-04-19 06:00:00 7.9 2 Norte 5 Nordeste 0 -- -- 97
2019-04-19 05:00:00 8.3 4 Nordeste 6 Este 0 -- -- 98
2019-04-19 04:00:00 8.2 2 Sudeste 8 Nordeste 0 -- -- 98
2019-04-19 03:00:00 7.8 4 Nordeste 6 Este 0 -- -- 97
2019-04-19 02:00:00 8.2 3 Nordeste 8 Nordeste 0 -- -- 96
2019-04-19 01:00:00 8.8 3 Este 7 Nordeste 0 -- -- 94
2019-04-19 00:00:00 9.9 0 Calma 7 Este 0 -- -- 90
2019-04-18 23:00:00 12.1 0 Calma 22 Norte 0 -- -- 84
2019-04-18 22:00:00 13.2 5 Noroeste 29 Norte 0 -- -- 75
2019-04-18 21:00:00 14.4 15 Norte 26 Noroeste 0 -- -- 69
2019-04-18 20:00:00 17.7 13 Noroeste 33 Noroeste 0 -- -- 59
2019-04-18 19:00:00 18.2 16 Oeste 32 Oeste 0 -- -- 60
2019-04-18 18:00:00 19.4 16 Oeste 30 Oeste 0 -- -- 58
2019-04-18 17:00:00 20 19 Oeste 31 Oeste 0 -- -- 55
2019-04-18 16:00:00 18.8 11 Oeste 25 Oeste 0 -- -- 58
2019-04-18 15:00:00 18.2 13 Oeste 31 Oeste 0 -- -- 63
2019-04-18 14:00:00 18.9 18 Oeste 30 Sudoeste 0.2 -- -- 57
2019-04-18 13:00:00 18.2 3 Este 7 Oeste 0 -- -- 71
2019-04-18 12:00:00 17.1 4 Sudoeste 12 Sudoeste 0 -- -- 72
2019-04-18 11:00:00 13.3 4 Sur 11 Nordeste 0.8 -- -- 94
2019-04-18 10:00:00 11.6 8 Nordeste 31 Oeste 4.2 -- -- 93
2019-04-18 09:00:00 12.7 2 Noroeste 4 Este 0 -- -- 97
2019-04-18 08:00:00 10.6 0 Calma 6 Este 0 -- -- 98
2019-04-18 07:00:00 11.4 3 Este 8 Norte 0 -- -- 98
2019-04-18 06:00:00 12.5 3 Sur 7 Nordeste 0 -- -- 97
2019-04-18 05:00:00 12.6 0 Calma 7 Oeste 0 -- -- 97
2019-04-18 04:00:00 12.7 4 Oeste 9 Este 0.2 -- -- 96
2019-04-18 03:00:00 12.9 0 Calma 8 Noroeste 0 -- -- 94
2019-04-18 02:00:00 13.2 2 Nordeste 7 Nordeste 0 -- -- 90
2019-04-18 01:00:00 13.3 3 Este 8 Este 0 -- -- 90
2019-04-18 00:00:00 13.6 3 Sudoeste 6 Sudoeste 0 -- -- 89
2019-04-17 23:00:00 14 0 Calma 10 Oeste 0 -- -- 88
2019-04-17 22:00:00 14.5 3 Nordeste 13 Nordeste 0 -- -- 83
2019-04-17 21:00:00 14.9 10 Noroeste 34 Oeste 0.2 -- -- 78
2019-04-17 20:00:00 17.1 4 Sudoeste 14 Sudoeste 0 -- -- 81
2019-04-17 19:00:00 17.6 3 Noroeste 13 Sudeste 0.8 -- -- 76
2019-04-17 18:00:00 17.9 7 Sur 24 Sudeste 0 -- -- 75
2019-04-17 17:00:00 18.5 9 Sudeste 22 Sudeste 0 -- -- 69
2019-04-17 16:00:00 17.2 7 Sudeste 35 Este 0 -- -- 79
2019-04-17 15:00:00 17.1 14 Sudeste 41 Sudeste 0 -- -- 77
2019-04-17 14:00:00 18.7 23 Sudeste 45 Sudeste 0 -- -- 69
2019-04-17 13:00:00 17.6 21 Sudeste 42 Este 0 -- -- 76
2019-04-17 12:00:00 16.7 20 Sudeste 46 Sudeste 0 -- -- 81
2019-04-17 11:00:00 17.1 17 Sudeste 40 Sudeste 0 -- -- 75
2019-04-17 10:00:00 16.4 18 Sudeste 41 Sudeste 0 -- -- 78
2019-04-17 09:00:00 16.7 16 Sudeste 39 Este 0 -- -- 74
2019-04-17 08:00:00 16.1 19 Sudeste 37 Sudeste 0 -- -- 71
2019-04-17 07:00:00 16.1 14 Sudeste 40 Este 0 -- -- 69
2019-04-17 06:00:00 16.1 12 Sudeste 47 Sudeste 0 -- -- 68
2019-04-17 05:00:00 16.6 15 Sudeste 42 Este 0 -- -- 62
2019-04-17 04:00:00 16.7 18 Sudeste 36 Sudeste 0 -- -- 64
2019-04-17 03:00:00 16 15 Sudeste 36 Este 0 -- -- 74
2019-04-17 02:00:00 10.2 0 Calma 8 Este 0 -- -- 94
2019-04-17 01:00:00 10.9 3 Nordeste 9 Noroeste 0 -- -- 93
2019-04-17 00:00:00 11.5 3 Norte 6 Noroeste 0 -- -- 90
2019-04-16 23:00:00 12.1 5 Nordeste 8 Norte 0 -- -- 86
2019-04-16 22:00:00 14.3 3 Este 13 Sur 0 -- -- 81
2019-04-16 21:00:00 17 7 Sur 17 Sudeste 0 -- -- 69
2019-04-16 20:00:00 19.8 8 Sur 30 Sudeste 0 -- -- 56
2019-04-16 19:00:00 20.9 13 Sudeste 30 Sudeste 0 -- -- 53
2019-04-16 18:00:00 21.7 16 Sudeste 32 Sudeste 0 -- -- 49
2019-04-16 17:00:00 23 15 Sudeste 37 Sudeste 0 -- -- 44
2019-04-16 16:00:00 23.7 16 Sudeste 28 Sudeste 0 -- -- 40
2019-04-16 15:00:00 24.5 13 Sudeste 26 Sudeste 0 -- -- 37
2019-04-16 14:00:00 24.5 12 Sudeste 22 Sudeste 0 -- -- 31
2019-04-16 13:00:00 23.9 10 Sudeste 18 Este 0 -- -- 40
2019-04-16 12:00:00 22.3 3 Sudoeste 6 Oeste 0 -- -- 51
2019-04-16 11:00:00 19.4 2 Noroeste 6 Noroeste 0 -- -- 63
2019-04-16 10:00:00 16.5 0 Calma 5 Sudeste 0 -- -- 73
2019-04-16 09:00:00 11.6 3 Sudeste 6 Este 0 -- -- 90
2019-04-16 08:00:00 8 5 Nordeste 10 Nordeste 0 -- -- 97
2019-04-16 07:00:00 8.3 7 Este 11 Este 0 -- -- 96
2019-04-16 06:00:00 9 4 Nordeste 10 Nordeste 0 -- -- 96
2019-04-16 05:00:00 9.9 3 Norte 7 Este 0 -- -- 94
2019-04-16 04:00:00 12.3 6 Nordeste 19 Oeste 0 -- -- 90
2019-04-16 03:00:00 11.2 8 Oeste 14 Oeste 0 -- -- 93
2019-04-16 02:00:00 10.9 5 Este 11 Oeste 0 -- -- 90
2019-04-16 01:00:00 13.8 4 Noroeste 13 Noroeste 0 -- -- 78
2019-04-16 00:00:00 14.3 5 Noroeste 16 Oeste 0 -- -- 78
2019-04-15 23:00:00 15.5 5 Noroeste 17 Noroeste 0 -- -- 77
2019-04-15 22:00:00 17 8 Noroeste 31 Noroeste 0 -- -- 74
2019-04-15 21:00:00 18.2 18 Oeste 39 Oeste 0 -- -- 69
2019-04-15 20:00:00 19.9 23 Oeste 43 Oeste 0 -- -- 62
2019-04-15 19:00:00 21.9 27 Oeste 45 Oeste 0 -- -- 44
2019-04-15 18:00:00 23.6 24 Oeste 38 Sudoeste 0 -- -- 45
2019-04-15 17:00:00 25.1 21 Oeste 33 Oeste 0 -- -- 38
2019-04-15 16:00:00 25.8 17 Oeste 35 Noroeste 0 -- -- 48
2019-04-15 15:00:00 27.5 16 Oeste 28 Oeste 0 -- -- 39
2019-04-15 14:00:00 27.6 4 Noroeste 12 Sur 0 -- -- 37
2019-04-15 13:00:00 26.2 3 Este 8 Sudoeste 0 -- -- 35
2019-04-15 12:00:00 23.4 3 Sudeste 6 Sudeste 0 -- -- 51
2019-04-15 11:00:00 19.1 0 Calma 4 Oeste 0 -- -- 63
2019-04-15 10:00:00 14.8 2 Noroeste 4 Oeste 0 -- -- 80
2019-04-15 09:00:00 10.6 0 Calma 6 Nordeste 0 -- -- 93
2019-04-15 08:00:00 7.9 0 Calma 5 Este 0 -- -- 96
2019-04-15 07:00:00 8.2 4 Norte 8 Nordeste 0 -- -- 96
2019-04-15 06:00:00 8.5 0 Calma 9 Nordeste 0 -- -- 95
2019-04-15 05:00:00 9.1 4 Nordeste 8 Nordeste 0 -- -- 95
2019-04-15 04:00:00 10 4 Este 6 Este 0 -- -- 94
2019-04-15 03:00:00 10.9 5 Nordeste 7 Nordeste 0 -- -- 92
2019-04-15 02:00:00 12.3 3 Nordeste 10 Nordeste 0 -- -- 89
2019-04-15 01:00:00 13.4 7 Nordeste 9 Nordeste 0 -- -- 88
2019-04-15 00:00:00 14.6 2 Nordeste 9 Nordeste 0 -- -- 83
2019-04-14 23:00:00 15.5 3 Este 5 Nordeste 0 -- -- 81
2019-04-14 22:00:00 16.6 4 Este 5 Este 0 -- -- 75
2019-04-14 21:00:00 19.1 2 Norte 9 Este 0 -- -- 60
2019-04-14 20:00:00 22.2 6 Sudeste 15 Sudeste 0 -- -- 46
2019-04-14 19:00:00 25.1 9 Sudeste 21 Sur 0 -- -- 40
2019-04-14 18:00:00 26.2 10 Sudeste 23 Este 0 -- -- 36
2019-04-14 17:00:00 27.2 13 Sudeste 25 Sudeste 0 -- -- 36
2019-04-14 16:00:00 27.6 11 Sudeste 20 Sudeste 0 -- -- 33
2019-04-14 15:00:00 27.3 9 Sudeste 19 Sudeste 0 -- -- 34
2019-04-14 14:00:00 27.3 6 Sudeste 15 Sur 0 -- -- 36
2019-04-14 13:00:00 26.3 6 Sur 12 Sur 0 -- -- 37
2019-04-14 12:00:00 24.4 4 Sudoeste 7 Oeste 0 -- -- 48
2019-04-14 11:00:00 21.2 3 Oeste 5 Oeste 0 -- -- 56
2019-04-14 10:00:00 17.4 2 Oeste 3 Oeste 0 -- -- 68
2019-04-14 09:00:00 12.3 0 Calma 8 Nordeste 0 -- -- 82
2019-04-14 08:00:00 8.1 3 Nordeste 7 Nordeste 0 -- -- 94
2019-04-14 07:00:00 8.1 4 Nordeste 7 Nordeste 0 -- -- 93
2019-04-14 06:00:00 8.4 0 Calma 7 Norte 0 -- -- 92
2019-04-14 05:00:00 8.5 5 Nordeste 9 Nordeste 0 -- -- 93
2019-04-14 04:00:00 8.9 3 Este 9 Este 0 -- -- 91
2019-04-14 03:00:00 9.5 4 Este 11 Este 0 -- -- 89
2019-04-14 02:00:00 9.8 4 Este 11 Este 0 -- -- 87
2019-04-14 01:00:00 10.3 2 Sudeste 7 Este 0 -- -- 86
2019-04-14 00:00:00 11.3 4 Sudeste 8 Sur 0 -- -- 82
2019-04-13 23:00:00 12.8 4 Este 9 Nordeste 0 -- -- 77
2019-04-13 22:00:00 16.2 3 Este 24 Oeste 0 -- -- 65
2019-04-13 21:00:00 19.2 13 Oeste 25 Oeste 0 -- -- 52
2019-04-13 20:00:00 21.6 10 Noroeste 32 Oeste 0 -- -- 48
2019-04-13 19:00:00 22.9 16 Oeste 40 Oeste 0 -- -- 48
2019-04-13 18:00:00 23.8 17 Oeste 36 Oeste 0 -- -- 46
2019-04-13 17:00:00 24.4 20 Oeste 35 Oeste 0 -- -- 46
2019-04-13 16:00:00 25.2 17 Oeste 35 Oeste 0 -- -- 44
2019-04-13 15:00:00 25 12 Oeste 23 Oeste 0 -- -- 42
2019-04-13 14:00:00 25.1 8 Sur 19 Oeste 0 -- -- 36
2019-04-13 13:00:00 24.6 5 Sudeste 12 Sudoeste 0 -- -- 34
2019-04-13 12:00:00 21.8 4 Sudeste 8 Sudeste 0 -- -- 44
2019-04-13 11:00:00 18.6 3 Sudoeste 6 Sur 0 -- -- 59
2019-04-13 10:00:00 14.6 0 Calma 5 Noroeste 0 -- -- 68
2019-04-13 09:00:00 9.8 0 Calma 4 Noroeste 0 -- -- 87
2019-04-13 08:00:00 5.6 2 Nordeste 7 Norte 0 -- -- 94
2019-04-13 07:00:00 6.1 2 Norte 8 Nordeste 0 -- -- 93
2019-04-13 06:00:00 6.6 4 Este 10 Este 0 -- -- 92
2019-04-13 05:00:00 7.8 4 Nordeste 9 Nordeste 0 -- -- 89
2019-04-13 04:00:00 7.4 6 Este 8 Este 0 -- -- 91
2019-04-13 03:00:00 8 3 Nordeste 6 Nordeste 0 -- -- 89
2019-04-13 02:00:00 8.8 4 Nordeste 9 Nordeste 0 -- -- 85
2019-04-13 01:00:00 9.5 5 Este 9 Sur 0 -- -- 83
2019-04-13 00:00:00 10.8 0 Calma 8 Nordeste 0 -- -- 76
2019-04-12 23:00:00 12.9 7 Este 22 Noroeste 0 -- -- 69
2019-04-12 22:00:00 16.9 7 Noroeste 22 Oeste 0 -- -- 50
2019-04-12 21:00:00 18.3 15 Oeste 28 Oeste 0 -- -- 46
2019-04-12 20:00:00 21.9 10 Oeste 25 Noroeste 0 -- -- 37
2019-04-12 19:00:00 22.7 17 Oeste 31 Noroeste 0 -- -- 36
2019-04-12 18:00:00 23.9 16 Noroeste 32 Noroeste 0 -- -- 38
2019-04-12 17:00:00 24.6 18 Oeste 36 Oeste 0 -- -- 37
2019-04-12 16:00:00 24.2 18 Oeste 35 Noroeste 0 -- -- 36
2019-04-12 15:00:00 23.9 19 Oeste 31 Oeste 0 -- -- 34
2019-04-12 14:00:00 23.7 14 Oeste 29 Oeste 0 -- -- 39
2019-04-12 13:00:00 23.5 6 Oeste 16 Sudoeste 0 -- -- 34
2019-04-12 12:00:00 21.8 3 Noroeste 7 Oeste 0 -- -- 46
2019-04-12 11:00:00 18.1 2 Noroeste 5 Noroeste 0 -- -- 58
2019-04-12 10:00:00 14.1 0 Calma 6 Norte 0 -- -- 72
2019-04-12 09:00:00 10 3 Nordeste 6 Este 0 -- -- 92
2019-04-12 08:00:00 5.8 6 Nordeste 8 Este 0 -- -- 98
2019-04-12 07:00:00 6.1 0 Calma 6 Nordeste 0 -- -- 97
2019-04-12 06:00:00 6.9 5 Este 10 Este 0 -- -- 96
2019-04-12 05:00:00 7.3 5 Este 9 Este 0 -- -- 96
2019-04-12 04:00:00 7.9 2 Este 6 Nordeste 0 -- -- 96
2019-04-12 03:00:00 8.6 3 Este 9 Nordeste 0 -- -- 95
2019-04-12 02:00:00 8.8 6 Nordeste 9 Nordeste 0 -- -- 94
2019-04-12 01:00:00 9.6 6 Este 8 Nordeste 0 -- -- 91
2019-04-12 00:00:00 12.2 2 Este 13 Oeste 0 -- -- 83
2019-04-11 23:00:00 14.3 8 Oeste 17 Oeste 0 -- -- 75
2019-04-11 22:00:00 15 0 Calma 23 Oeste 0 -- -- 68
2019-04-11 21:00:00 16.9 12 Oeste 24 Noroeste 0 -- -- 60
2019-04-11 20:00:00 20 8 Noroeste 27 Noroeste 0 -- -- 41
2019-04-11 19:00:00 21.1 12 Noroeste 31 Noroeste 0 -- -- 42
2019-04-11 18:00:00 21.4 12 Noroeste 32 Noroeste 0 -- -- 44
2019-04-11 17:00:00 21.3 19 Noroeste 35 Noroeste -- -- -- 47
2019-04-11 16:00:00 21.2 18 Noroeste 39 Noroeste 0 -- -- 48
2019-04-11 15:00:00 20.8 21 Noroeste 38 Noroeste 0 -- -- 39
2019-04-11 14:00:00 21 15 Oeste 33 Oeste 0 -- -- 53
2019-04-11 13:00:00 19.9 18 Oeste 32 Sudoeste 0 -- -- 53
2019-04-11 12:00:00 19.1 14 Oeste 24 Oeste 0 -- -- 54
2019-04-11 11:00:00 17.2 2 Sur 6 Sudeste 0 -- -- 63
2019-04-11 10:00:00 12.7 2 Sudeste 3 Sudeste 0 -- -- 79
2019-04-11 09:00:00 8.5 0 Calma 8 Nordeste 0 -- -- 95
2019-04-11 08:00:00 5 2 Este 5 Este 0 -- -- 97
2019-04-11 07:00:00 5.6 3 Nordeste 8 Este 0 -- -- 97
2019-04-11 06:00:00 6 5 Nordeste 6 Nordeste 0 -- -- 96
2019-04-11 05:00:00 7.1 0 Calma 9 Noroeste 0 -- -- 95
2019-04-11 04:00:00 7.3 4 Norte 9 Nordeste 0 -- -- 98
2019-04-11 03:00:00 7.9 4 Nordeste 10 Nordeste 0 -- -- 97
2019-04-11 02:00:00 8.3 5 Este 6 Nordeste 0 -- -- 95
2019-04-11 01:00:00 9.4 4 Nordeste 8 Este -- -- -- 93
2019-04-11 00:00:00 11.3 3 Este 6 Noroeste 0 -- -- 89
2019-04-10 23:00:00 13.3 5 Noroeste 10 Noroeste 0 -- -- 84
2019-04-10 22:00:00 14.3 6 Noroeste 19 Noroeste 0 -- -- 79
2019-04-10 21:00:00 15.4 12 Oeste 28 Oeste 0 -- -- 74
2019-04-10 20:00:00 17.5 14 Oeste 34 Oeste 0 -- -- 65
2019-04-10 19:00:00 19.1 21 Oeste 32 Oeste 0 -- -- 58
2019-04-10 18:00:00 19.1 20 Noroeste 38 Noroeste 0 -- -- 51
2019-04-10 17:00:00 19.1 19 Noroeste 38 Noroeste 0 -- -- 50
2019-04-10 16:00:00 19.3 22 Noroeste 44 Noroeste 0 -- -- 50
2019-04-10 15:00:00 18.8 20 Noroeste 44 Noroeste 0 -- -- 52
2019-04-10 14:00:00 17.9 24 Noroeste 43 Oeste 0 -- -- 54
2019-04-10 13:00:00 16.9 25 Noroeste 45 Noroeste 0 -- -- 55
2019-04-10 12:00:00 15.9 26 Noroeste 49 Noroeste 0 -- -- 55
2019-04-10 11:00:00 15.3 17 Noroeste 35 Noroeste 0 -- -- 61
2019-04-10 10:00:00 13.9 15 Noroeste 29 Noroeste 0 -- -- 68
2019-04-10 09:00:00 11.7 4 Norte 11 Noroeste 0 -- -- 76
2019-04-10 08:00:00 9.5 3 Norte 21 Oeste 0 -- -- 86
2019-04-10 07:00:00 10.3 9 Oeste 24 Noroeste 0 -- -- 83
2019-04-10 06:00:00 10.9 12 Noroeste 20 Noroeste 0.2 -- -- 82
2019-04-10 05:00:00 11.5 9 Noroeste 22 Noroeste 0 -- -- 80
2019-04-10 04:00:00 11.5 10 Noroeste 20 Oeste 0 -- -- 82
2019-04-10 03:00:00 11.5 8 Oeste 15 Noroeste 0 -- -- 84
2019-04-10 02:00:00 9.1 2 Noroeste 9 Norte 0 -- -- 95
2019-04-10 01:00:00 9.7 3 Norte 8 Norte 0 -- -- 93
2019-04-10 00:00:00 10.5 2 Nordeste 10 Oeste 0 -- -- 89
2019-04-09 23:00:00 12.2 5 Noroeste 20 Oeste 0 -- -- 83
2019-04-09 22:00:00 13.9 13 Noroeste 30 Noroeste 0 -- -- 75
2019-04-09 21:00:00 14.6 16 Oeste 27 Oeste 0 -- -- 70
2019-04-09 20:00:00 17.2 11 Oeste 28 Oeste 0 -- -- 63
2019-04-09 19:00:00 18.7 18 Oeste 34 Oeste 0 -- -- 57
2019-04-09 18:00:00 19.2 15 Oeste 39 Oeste 0 -- -- 56
2019-04-09 17:00:00 19.4 23 Oeste 40 Oeste 0 -- -- 51
2019-04-09 16:00:00 19.7 22 Oeste 39 Oeste 0.2 -- -- 51
2019-04-09 15:00:00 17.6 20 Oeste 35 Oeste 0 -- -- 56
2019-04-09 14:00:00 17 13 Noroeste 25 Oeste 0 -- -- 63
2019-04-09 13:00:00 14.6 10 Noroeste 27 Noroeste 0 -- -- 75
2019-04-09 12:00:00 17.4 13 Oeste 21 Oeste 0 -- -- 62
2019-04-09 11:00:00 16.4 0 Calma 8 Sudoeste 0 -- -- 69
2019-04-09 10:00:00 14.2 3 Sudoeste 6 Sudoeste 0 -- -- 81
2019-04-09 09:00:00 9.9 2 Norte 7 Noroeste 0 -- -- 93
2019-04-09 08:00:00 7.5 5 Norte 9 Norte 0 -- -- 96
2019-04-09 07:00:00 8.8 7 Norte 15 Norte 0.2 -- -- 91
2019-04-09 06:00:00 9.4 6 Noroeste 16 Noroeste 0 -- -- 89
2019-04-09 05:00:00 10.6 7 Noroeste 19 Norte 0 -- -- 85
2019-04-09 04:00:00 10.1 6 Noroeste 10 Norte 0 -- -- 95
2019-04-09 03:00:00 10.6 0 Calma 10 Oeste 0 -- -- 94
2019-04-09 02:00:00 11.5 2 Sudoeste 10 Noroeste 0 -- -- 91
2019-04-09 01:00:00 12.5 5 Norte 16 Oeste 0 -- -- 86
2019-04-09 00:00:00 12.7 10 Oeste 29 Oeste 0 -- -- 84
2019-04-08 23:00:00 13.2 11 Oeste 22 Oeste 0.4 -- -- 89
2019-04-08 22:00:00 14.1 5 Oeste 14 Oeste 0.4 -- -- 91
2019-04-08 21:00:00 14.6 9 Oeste 20 Oeste 0 -- -- 87
2019-04-08 20:00:00 15 6 Sudoeste 14 Oeste 0 -- -- 91
2019-04-08 19:00:00 15.4 7 Oeste 28 Noroeste 0 -- -- 86
2019-04-08 18:00:00 16.8 13 Oeste 32 Sudoeste 0 -- -- 77
2019-04-08 17:00:00 19 21 Oeste 41 Oeste 0 -- -- 64
2019-04-08 16:00:00 19.1 17 Oeste 36 Sudoeste 0 -- -- 63
2019-04-08 15:00:00 19.1 19 Oeste 34 Oeste 0.2 -- -- 63
2019-04-08 14:00:00 19.6 21 Sudoeste 36 Oeste 0 -- -- 67
2019-04-08 13:00:00 18 10 Oeste 27 Sudoeste 0 -- -- 73
2019-04-08 12:00:00 17.9 4 Norte 24 Sudoeste 0 -- -- 78
2019-04-08 11:00:00 16.3 3 Sudoeste 8 Norte 0 -- -- 89
2019-04-08 10:00:00 16 0 Calma 5 Nordeste 0 -- -- 96
2019-04-08 09:00:00 12.2 0 Calma 4 Nordeste 0 -- -- 99
2019-04-08 08:00:00 12.4 0 Calma 8 Este 0 -- -- 99
2019-04-08 07:00:00 12.9 0 Calma 12 Oeste 0.2 -- -- 99
2019-04-08 06:00:00 12.8 0 Calma 7 Nordeste 0 -- -- 99
2019-04-08 05:00:00 12.8 5 Nordeste 6 Nordeste 0.2 -- -- 99
2019-04-08 04:00:00 13 3 Este 5 Este 0 -- -- 99
2019-04-08 03:00:00 13.2 2 Norte 8 Sudoeste 0.4 -- -- 99
2019-04-08 02:00:00 13.2 2 Este 5 Oeste 0 -- -- 98
2019-04-08 01:00:00 13.2 0 Calma 5 Nordeste 0 -- -- 98
2019-04-08 00:00:00 13.6 3 Nordeste 10 Norte 0.2 -- -- 97
2019-04-07 23:00:00 13.9 3 Nordeste 10 Norte 0.4 -- -- 96
2019-04-07 22:00:00 14.3 4 Noroeste 26 Oeste 6.6 -- -- 95
2019-04-07 21:00:00 14.9 10 Oeste 24 Oeste 1 -- -- 91
2019-04-07 20:00:00 15.1 15 Oeste 26 Oeste 0.6 -- -- 91
2019-04-07 19:00:00 14.7 4 Oeste 17 Sudoeste 1.6 -- -- 94
2019-04-07 18:00:00 14.9 6 Oeste 17 Oeste 1.4 -- -- 92
2019-04-07 17:00:00 14.9 2 Norte 17 Noroeste 0.2 -- -- 88
2019-04-07 16:00:00 15.8 6 Oeste 30 Oeste 0 -- -- 80
2019-04-07 15:00:00 15.6 16 Oeste 37 Oeste 0 -- -- 75
2019-04-07 14:00:00 15.7 2 Norte 23 Oeste 0 -- -- 79
2019-04-07 13:00:00 14.8 5 Oeste 23 Noroeste 0 -- -- 79
2019-04-07 12:00:00 14.5 14 Oeste 27 Oeste 0 -- -- 76
2019-04-07 11:00:00 15.2 4 Sudoeste 15 Sudoeste 0.2 -- -- 78
2019-04-07 10:00:00 13 2 Sur 8 Sur 0 -- -- 89
2019-04-07 09:00:00 10.3 3 Sur 9 Noroeste 0 -- -- 98
2019-04-07 08:00:00 9.8 3 Norte 8 Este 0 -- -- 97
2019-04-07 07:00:00 9.8 0 Calma 7 Este 0 -- -- 97
2019-04-07 06:00:00 9.6 4 Este 8 Este 0 -- -- 96
2019-04-07 05:00:00 10.4 5 Este 13 Sudoeste 0.4 -- -- 95
2019-04-07 04:00:00 11 9 Sudoeste 19 Sudoeste 0.4 -- -- 94
2019-04-07 03:00:00 11.3 5 Oeste 19 Oeste 0.4 -- -- 90
2019-04-07 02:00:00 10.5 5 Sur 14 Oeste 0.2 -- -- 90
2019-04-07 01:00:00 11.3 10 Oeste 38 Oeste 0.2 -- -- 83
2019-04-07 00:00:00 12.9 13 Oeste 28 Oeste 0 -- -- 76
2019-04-06 23:00:00 12.8 12 Oeste 38 Oeste 0 -- -- 76
2019-04-06 22:00:00 13.1 15 Oeste 39 Oeste 0 -- -- 74
2019-04-06 21:00:00 13.2 22 Oeste 42 Oeste 0 -- -- 72
2019-04-06 20:00:00 13.8 19 Oeste 39 Noroeste 0 -- -- 71
2019-04-06 19:00:00 14 17 Noroeste 42 Oeste 0 -- -- 75
2019-04-06 18:00:00 15.9 21 Oeste 42 Noroeste 0 -- -- 65
2019-04-06 17:00:00 14.8 17 Oeste 36 Oeste 0.4 -- -- 72
2019-04-06 16:00:00 14.2 19 Oeste 38 Oeste 0.4 -- -- 72
2019-04-06 15:00:00 13.3 16 Oeste 28 Oeste 0.4 -- -- 81
2019-04-06 14:00:00 12.6 15 Oeste 42 Oeste 0.6 -- -- 80
2019-04-06 13:00:00 15.3 19 Noroeste 36 Oeste 0 -- -- 67
2019-04-06 12:00:00 15 11 Oeste 33 Oeste 0 -- -- 73
2019-04-06 11:00:00 12.5 5 Sur 10 Sur 0.2 -- -- 87
2019-04-06 10:00:00 9.7 0 Calma 9 Norte 1.2 -- -- 95
2019-04-06 09:00:00 8.5 3 Sudoeste 9 Sur 0 -- -- 95
2019-04-06 08:00:00 8.5 4 Nordeste 18 Oeste 1 -- -- 92
2019-04-06 07:00:00 8.9 7 Oeste 14 Oeste 0.4 -- -- 91
2019-04-06 06:00:00 8.8 4 Nordeste 18 Oeste 0.4 -- -- 91
2019-04-06 05:00:00 9.3 8 Oeste 19 Oeste 0 -- -- 83
2019-04-06 04:00:00 8 5 Sudeste 11 Sudeste 0 -- -- 87
2019-04-06 03:00:00 9 4 Este 12 Sudoeste 0.2 -- -- 81
2019-04-06 02:00:00 10.4 5 Noroeste 21 Noroeste 0 -- -- 74
2019-04-06 01:00:00 11 12 Noroeste 22 Noroeste 0 -- -- 73
2019-04-06 00:00:00 11.6 10 Noroeste 26 Oeste 0 -- -- 72
2019-04-05 23:00:00 11.9 15 Noroeste 37 Oeste 0 -- -- 72
2019-04-05 22:00:00 12.2 20 Oeste 38 Oeste 0 -- -- 70
2019-04-05 21:00:00 12.6 15 Oeste 45 Oeste 0 -- -- 66
2019-04-05 20:00:00 13.5 26 Oeste 48 Oeste 0.2 -- -- 58
2019-04-05 19:00:00 14.8 24 Oeste 50 Oeste 0 -- -- 53
2019-04-05 18:00:00 15.4 21 Oeste 55 Oeste 0 -- -- 52
2019-04-05 17:00:00 15.2 27 Oeste 56 Oeste 0 -- -- 49
2019-04-05 16:00:00 14.6 24 Oeste 44 Oeste 0.2 -- -- 56
2019-04-05 15:00:00 14.4 23 Oeste 44 Oeste 0 -- -- 61
2019-04-05 14:00:00 14 18 Noroeste 33 Noroeste 0.2 -- -- 75
2019-04-05 13:00:00 12 0 Calma 37 Sur 1.6 -- -- 91
2019-04-05 12:00:00 11.9 10 Sudeste 19 Sudeste 0.8 -- -- 93
2019-04-05 11:00:00 11.6 6 Este 14 Norte 0.4 -- -- 93
2019-04-05 10:00:00 11.1 3 Nordeste 14 Noroeste 1.2 -- -- 95
2019-04-05 09:00:00 11.1 13 Oeste 29 Oeste 4.2 -- -- 95
2019-04-05 08:00:00 10.4 5 Este 12 Este 1.2 -- -- 97
2019-04-05 07:00:00 9.7 2 Oeste 7 Sudeste 0.4 -- -- 94
2019-04-05 06:00:00 9.4 4 Nordeste 8 Nordeste 0 -- -- 93
2019-04-05 05:00:00 8.5 3 Sudeste 8 Oeste 0 -- -- 92
2019-04-05 04:00:00 8.3 0 Calma 6 Noroeste 0 -- -- 90
2019-04-05 03:00:00 8 0 Calma 8 Este 0 -- -- 89
2019-04-05 02:00:00 7.2 0 Calma 8 Nordeste 0 -- -- 90
2019-04-05 01:00:00 7.1 4 Este 6 Este 0 -- -- 87
2019-04-05 00:00:00 7.3 2 Nordeste 8 Nordeste 0 -- -- 86
2019-04-04 23:00:00 8.2 4 Nordeste 10 Oeste 0 -- -- 81
2019-04-04 22:00:00 11 5 Oeste 19 Oeste 0 -- -- 68
2019-04-04 21:00:00 13.1 13 Oeste 34 Oeste 0 -- -- 54
2019-04-04 20:00:00 15.2 20 Oeste 35 Oeste 0 -- -- 53
2019-04-04 19:00:00 16.8 20 Oeste 40 Oeste 0 -- -- 55
2019-04-04 18:00:00 18.8 20 Oeste 31 Sudoeste 0 -- -- 48
2019-04-04 17:00:00 19.9 14 Oeste 33 Oeste 0 -- -- 42
2019-04-04 16:00:00 19.9 17 Oeste 32 Oeste 0 -- -- 41
2019-04-04 15:00:00 19.6 20 Oeste 35 Oeste 0 -- -- 37
2019-04-04 14:00:00 19.2 19 Oeste 35 Sudoeste 0 -- -- 41
2019-04-04 13:00:00 19.2 17 Oeste 32 Sudoeste 0 -- -- 40
2019-04-04 12:00:00 18.9 5 Sudoeste 13 Sudoeste 0 -- -- 44
2019-04-04 11:00:00 15.9 4 Sur 6 Sudoeste 0 -- -- 53
2019-04-04 10:00:00 12.9 0 Calma 6 Este 0 -- -- 69
2019-04-04 09:00:00 7.4 6 Nordeste 9 Nordeste 0 -- -- 90
2019-04-04 08:00:00 5.2 6 Este 9 Nordeste 0 -- -- 93
2019-04-04 07:00:00 6.1 0 Calma 6 Nordeste 0 -- -- 92
2019-04-04 06:00:00 7.4 3 Este 10 Noroeste 0 -- -- 87
2019-04-04 05:00:00 10.5 8 Noroeste 14 Noroeste 0 -- -- 74
2019-04-04 04:00:00 11.7 3 Noroeste 24 Noroeste 0 -- -- 71
2019-04-04 03:00:00 11.9 7 Noroeste 14 Noroeste 0 -- -- 75
2019-04-04 02:00:00 10.8 3 Este 22 Oeste 0 -- -- 80
2019-04-04 01:00:00 11.4 6 Oeste 15 Oeste 0 -- -- 78
2019-04-04 00:00:00 9.8 2 Este 10 Noroeste 0 -- -- 82
2019-04-03 23:00:00 11.6 4 Noroeste 16 Oeste 0 -- -- 75
2019-04-03 22:00:00 15.3 10 Oeste 21 Noroeste 0 -- -- 55
2019-04-03 21:00:00 17.5 9 Noroeste 35 Noroeste 0 -- -- 49
2019-04-03 20:00:00 20 19 Noroeste 35 Noroeste 0 -- -- 42
2019-04-03 19:00:00 22.2 17 Noroeste 33 Noroeste 0 -- -- 37
2019-04-03 18:00:00 23.4 14 Noroeste 32 Noroeste 0 -- -- 41
2019-04-03 17:00:00 23.9 14 Norte 28 Noroeste 0 -- -- 43
2019-04-03 16:00:00 23.7 15 Norte 30 Noroeste 0 -- -- 40
2019-04-03 15:00:00 24.2 12 Noroeste 27 Oeste 0 -- -- 41
2019-04-03 14:00:00 24.7 9 Sudoeste 17 Sudoeste 0 -- -- 47
2019-04-03 13:00:00 23.2 5 Sudeste 13 Sudeste 0 -- -- 44
2019-04-03 12:00:00 21 3 Sudeste 9 Sur 0 -- -- 53
2019-04-03 11:00:00 17 2 Noroeste 5 Noroeste 0 -- -- 75
2019-04-03 10:00:00 12.9 0 Calma 4 Este 0 -- -- 85
2019-04-03 09:00:00 8.8 3 Nordeste 6 Este 0 -- -- 99
2019-04-03 08:00:00 6.3 4 Este 5 Nordeste 0 -- -- 99
2019-04-03 07:00:00 6.9 2 Norte 9 Nordeste 0 -- -- 98
2019-04-03 06:00:00 7.1 0 Calma 8 Nordeste 0 -- -- 98
2019-04-03 05:00:00 7.5 3 Nordeste 8 Este 0 -- -- 98
2019-04-03 04:00:00 8 4 Nordeste 8 Nordeste 0 -- -- 98
2019-04-03 03:00:00 8.5 5 Este 7 Este 0 -- -- 97
2019-04-03 02:00:00 9.4 0 Calma 9 Nordeste 0 -- -- 96
2019-04-03 01:00:00 10.5 4 Nordeste 7 Este 0 -- -- 95
2019-04-03 00:00:00 11.7 0 Calma 9 Norte 0 -- -- 93
2019-04-02 23:00:00 12.3 5 Este 8 Nordeste 0 -- -- 91
2019-04-02 22:00:00 14.3 0 Calma 12 Nordeste 0 -- -- 85
2019-04-02 21:00:00 15.4 5 Nordeste 9 Nordeste 0 -- -- 83
2019-04-02 20:00:00 18.4 0 Calma 12 Este 0 -- -- 68
2019-04-02 19:00:00 19.2 5 Este 15 Este 0 -- -- 63
2019-04-02 18:00:00 19.4 8 Sudeste 21 Sudeste 0 -- -- 63
2019-04-02 17:00:00 21.1 10 Sudeste 21 Sudeste 0 -- -- 57
2019-04-02 16:00:00 21.7 14 Sudeste 21 Sudeste 0 -- -- 55
2019-04-02 15:00:00 22.6 9 Sur 19 Sudoeste 0 -- -- 50
2019-04-02 14:00:00 22.8 6 Sur 17 Sur 0 -- -- 51
2019-04-02 13:00:00 21.6 5 Sur 10 Sur 0 -- -- 51
2019-04-02 12:00:00 18.9 0 Calma 10 Noroeste 0 -- -- 63
2019-04-02 11:00:00 14.8 3 Noroeste 6 Norte 0 -- -- 80
2019-04-02 10:00:00 11.5 2 Sudoeste 4 Norte 0 -- -- 89
2019-04-02 09:00:00 7.6 3 Nordeste 5 Nordeste 0 -- -- 100
2019-04-02 08:00:00 5.4 3 Nordeste 6 Nordeste 0 -- -- 99
2019-04-02 07:00:00 5.9 3 Nordeste 6 Nordeste 0.2 -- -- 99
2019-04-02 06:00:00 6 2 Nordeste 5 Norte 0 -- -- 99
2019-04-02 05:00:00 6.4 0 Calma 8 Nordeste 0 -- -- 99
2019-04-02 04:00:00 6.9 3 Este 5 Nordeste 0 -- -- 98
2019-04-02 03:00:00 8.3 4 Norte 9 Nordeste 0 -- -- 99
2019-04-02 02:00:00 8.3 0 Calma 6 Nordeste 0 -- -- 98
2019-04-02 01:00:00 8.9 3 Este 8 Nordeste 0 -- -- 97
2019-04-02 00:00:00 9.9 4 Nordeste 7 Nordeste 0 -- -- 96
2019-04-01 23:00:00 11.2 4 Nordeste 6 Nordeste 0 -- -- 94
2019-04-01 22:00:00 12.3 4 Nordeste 8 Nordeste 0 -- -- 92
2019-04-01 21:00:00 15.3 8 Oeste 13 Oeste 0 -- -- 76
2019-04-01 20:00:00 18.3 10 Oeste 18 Oeste 0 -- -- 68
2019-04-01 19:00:00 19.5 12 Sudoeste 19 Noroeste 0 -- -- 64
2019-04-01 18:00:00 20.5 15 Oeste 23 Oeste 0 -- -- 59
2019-04-01 17:00:00 20.1 10 Oeste 15 Sudoeste 0 -- -- 65
2019-04-01 16:00:00 19.1 2 Sudeste 11 Este 0 -- -- 75
2019-04-01 15:00:00 16.4 4 Nordeste 8 Este 0.8 -- -- 86
2019-04-01 14:00:00 15.9 4 Sur 11 Sur 1.6 -- -- 83
2019-04-01 13:00:00 15.1 2 Este 6 Norte 0.6 -- -- 92
2019-04-01 12:00:00 14.2 3 Nordeste 6 Nordeste 4.2 -- -- 94
2019-04-01 11:00:00 14.2 0 Calma 8 Sudoeste 1.4 -- -- 93
2019-04-01 10:00:00 14.3 0 Calma 4 Nordeste 0 -- -- 96
2019-04-01 09:00:00 12.8 5 Norte 10 Oeste 0.2 -- -- 99
2019-04-01 08:00:00 12.3 3 Noroeste 12 Oeste 0.6 -- -- 99
2019-04-01 07:00:00 12.3 6 Nordeste 10 Nordeste 3.6 -- -- 99
2019-04-01 06:00:00 11.8 3 Sur 5 Sur 0.4 -- -- 99
2019-04-01 05:00:00 11.6 0 Calma 6 Oeste 0 -- -- 99
2019-04-01 04:00:00 11.4 0 Calma 5 Sur 0 -- -- 98
2019-04-01 03:00:00 11 2 Sudoeste 7 Nordeste 0 -- -- 98
2019-04-01 02:00:00 10.8 5 Este 8 Nordeste 0 -- -- 97
2019-04-01 01:00:00 11.5 2 Este 8 Nordeste 0 -- -- 97
2019-04-01 00:00:00 12.9 3 Nordeste 8 Este 0 -- -- 95
2019-03-31 23:00:00 14.2 2 Sudeste 4 Noroeste 0 -- -- 94
2019-03-31 22:00:00 14.9 0 Calma 5 Este 0 -- -- 92
2019-03-31 21:00:00 14.9 0 Calma 15 Sudeste 0 -- -- 90
2019-03-31 20:00:00 15.9 8 Sudeste 23 Sudeste 0 -- -- 85
2019-03-31 19:00:00 17.8 12 Sudeste 25 Sudeste 0 -- -- 79
2019-03-31 18:00:00 18.6 13 Este 20 Sudeste 0 -- -- 76
2019-03-31 17:00:00 18.2 4 Sur 22 Sudoeste 0.6 -- -- 80
2019-03-31 16:00:00 21.7 9 Sudeste 25 Sudeste 0 -- -- 60
2019-03-31 15:00:00 21.1 6 Sur 19 Sur 0 -- -- 60
2019-03-31 14:00:00 21.2 6 Sur 18 Sur 0 -- -- 62
2019-03-31 13:00:00 18.9 2 Norte 8 Sur 0 -- -- 73
2019-03-31 12:00:00 18 3 Norte 7 Oeste 0 -- -- 74
2019-03-31 11:00:00 16.2 0 Calma 4 Noroeste 0 -- -- 82
2019-03-31 10:00:00 13.5 0 Calma 3 Oeste 0.2 -- -- 97
2019-03-31 09:00:00 12.8 0 Calma 4 Noroeste 1.4 -- -- 98
2019-03-31 08:00:00 12.4 0 Calma 5 Norte 0.2 -- -- 97
2019-03-31 07:00:00 12.6 0 Calma 10 Sudeste 0 -- -- 96
2019-03-31 06:00:00 12.7 7 Sudeste 24 Sudeste 0 -- -- 94
2019-03-31 05:00:00 12.7 12 Sudeste 25 Sudeste 0.6 -- -- 96
2019-03-31 03:00:00 12.7 5 Este 14 Sudeste 0.4 -- -- 95
2019-03-31 01:00:00 13 3 Norte 13 Este 0.8 -- -- 93
2019-03-31 00:00:00 13.6 4 Este 27 Este 0 -- -- 87
2019-03-30 23:00:00 14.5 15 Este 33 Este 0 -- -- 81
2019-03-30 22:00:00 14.3 15 Sudeste 30 Este 0 -- -- 84
2019-03-30 21:00:00 14 6 Sudeste 23 Sudeste 0 -- -- 85
2019-03-30 20:00:00 14.1 12 Sudeste 26 Sudeste 0 -- -- 85
2019-03-30 19:00:00 14.5 10 Sudeste 25 Este 0 -- -- 84
2019-03-30 18:00:00 14.6 12 Sudeste 33 Sudeste 0 -- -- 84
2019-03-30 17:00:00 14.6 13 Sudeste 33 Sudeste 0 -- -- 83
2019-03-30 16:00:00 15 16 Sudeste 42 Este 0 -- -- 80
2019-03-30 15:00:00 16.2 21 Sudeste 41 Este 0 -- -- 74
2019-03-30 14:00:00 16.4 24 Este 44 Este 0 -- -- 73
2019-03-30 13:00:00 16.7 21 Sudeste 47 Este 0 -- -- 70
2019-03-30 12:00:00 18.1 25 Este 46 Sudeste 0 -- -- 58
2019-03-30 11:00:00 17 23 Este 52 Sudeste 0 -- -- 64
2019-03-30 10:00:00 15.3 21 Este 42 Sudeste 0 -- -- 71
2019-03-30 09:00:00 15.3 19 Sudeste 39 Sudeste 0 -- -- 69
2019-03-30 08:00:00 13.9 18 Este 36 Este 0 -- -- 74
2019-03-30 07:00:00 13.6 17 Sudeste 40 Este 0 -- -- 78
2019-03-30 06:00:00 13.8 20 Este 40 Este 0 -- -- 79
2019-03-30 05:00:00 13.8 15 Sudeste 31 Sudeste 0 -- -- 78
2019-03-30 04:00:00 13.8 12 Sudeste 31 Sudeste 0 -- -- 76
2019-03-30 03:00:00 14.2 18 Sudeste 35 Este 0 -- -- 75
2019-03-30 02:00:00 14.1 15 Este 37 Sudeste 0 -- -- 78
2019-03-30 01:00:00 14.1 19 Sudeste 36 Sudeste 0 -- -- 77
2019-03-30 00:00:00 14.2 19 Sudeste 37 Sudeste 0 -- -- 76
2019-03-29 23:00:00 14.2 16 Sudeste 31 Sudeste 0 -- -- 77
2019-03-29 22:00:00 14.3 14 Este 30 Este 0 -- -- 77
2019-03-29 21:00:00 14.1 15 Sudeste 33 Sudeste 0 -- -- 78
2019-03-29 20:00:00 14.4 18 Sudeste 34 Sudeste 0 -- -- 79
2019-03-29 19:00:00 15 14 Sudeste 41 Este 0 -- -- 75
2019-03-29 18:00:00 16.3 19 Este 37 Este 0 -- -- 70
2019-03-29 17:00:00 16.2 23 Sudeste 44 Este 0 -- -- 69
2019-03-29 16:00:00 16.4 28 Este 49 Este 0 -- -- 68
2019-03-29 15:00:00 17.2 24 Este 49 Este 0 -- -- 64
2019-03-29 14:00:00 17.7 29 Sudeste 50 Sudeste 0 -- -- 62
2019-03-29 13:00:00 18.1 27 Sudeste 53 Este 0 -- -- 62
2019-03-29 12:00:00 17.1 23 Este 49 Sudeste 0 -- -- 66
2019-03-29 11:00:00 15.5 21 Este 46 Este 0 -- -- 71
2019-03-29 10:00:00 15.3 26 Este 46 Este 0 -- -- 71
2019-03-29 09:00:00 14.3 21 Este 45 Este 0 -- -- 74
2019-03-29 08:00:00 14 15 Este 30 Este 0 -- -- 73
2019-03-29 07:00:00 13.8 14 Este 33 Sudeste 0 -- -- 74
2019-03-29 06:00:00 13.6 14 Este 33 Sudeste 0 -- -- 75
2019-03-29 05:00:00 13.7 18 Este 37 Este 0 -- -- 74
2019-03-29 04:00:00 13.4 14 Este 37 Este 0 -- -- 73
2019-03-29 03:00:00 13.5 23 Sudeste 44 Este 0 -- -- 69
2019-03-29 02:00:00 13.4 15 Sudeste 35 Sudeste 0 -- -- 67
2019-03-29 01:00:00 13.5 13 Sudeste 32 Este 0 -- -- 67
2019-03-29 00:00:00 13.6 13 Sudeste 35 Este 0 -- -- 69
2019-03-28 23:00:00 13.8 15 Este 38 Este 0 -- -- 67
2019-03-28 22:00:00 13.6 12 Sudeste 36 Este 0 -- -- 68
2019-03-28 21:00:00 13.7 12 Este 32 Este 0 -- -- 67
2019-03-28 20:00:00 13.9 16 Sudeste 46 Este 0 -- -- 73
2019-03-28 19:00:00 15 17 Este 39 Sudeste 0 -- -- 69
2019-03-28 18:00:00 15.8 27 Sudeste 49 Este 0 -- -- 66
2019-03-28 17:00:00 16.5 28 Este 57 Este 0 -- -- 63
2019-03-28 16:00:00 16.1 29 Este 55 Este 0 -- -- 65
2019-03-28 15:00:00 16.7 29 Este 57 Sudeste 0 -- -- 64
2019-03-28 14:00:00 17.1 33 Este 64 Este 0 -- -- 57
2019-03-28 13:00:00 17.5 31 Este 63 Sudeste 0 -- -- 56
2019-03-28 12:00:00 17.4 27 Este 56 Sudeste 0 -- -- 57
2019-03-28 11:00:00 16.7 29 Este 59 Sudeste 0 -- -- 58
2019-03-28 10:00:00 15.6 30 Este 59 Este 0 -- -- 60
2019-03-28 09:00:00 14.5 15 Este 41 Este 0 -- -- 65
2019-03-28 08:00:00 13.2 13 Este 31 Este 0 -- -- 70
2019-03-28 07:00:00 13.1 17 Este 28 Este 0 -- -- 69
2019-03-28 06:00:00 13.1 13 Este 32 Este 0 -- -- 67
2019-03-28 05:00:00 12.9 10 Este 35 Sudeste 0 -- -- 68
2019-03-28 04:00:00 13.4 10 Sudeste 35 Sudeste 0 -- -- 68
2019-03-28 03:00:00 13.6 16 Sudeste 39 Este 0 -- -- 67
2019-03-28 02:00:00 13.6 17 Sudeste 44 Este 0 -- -- 63
2019-03-28 01:00:00 14 20 Sudeste 42 Sudeste 0 -- -- 71
2019-03-28 00:00:00 14 18 Sudeste 45 Sudeste 0 -- -- 71
2019-03-27 23:00:00 14.2 20 Sudeste 44 Sudeste 0 -- -- 73
2019-03-27 22:00:00 14.1 19 Sudeste 39 Este 0 -- -- 70
2019-03-27 21:00:00 14.1 16 Este 39 Sudeste 0 -- -- 69
2019-03-27 20:00:00 14.1 20 Este 36 Este 0 -- -- 67
2019-03-27 19:00:00 15 18 Este 50 Este 0 -- -- 66
2019-03-27 18:00:00 15.2 24 Este 54 Sudeste 0 -- -- 63
2019-03-27 17:00:00 15.8 31 Este 58 Este 0 -- -- 59
2019-03-27 16:00:00 16.5 28 Este 59 Sudeste 0 -- -- 52
2019-03-27 15:00:00 17.5 31 Sudeste 60 Este 0 -- -- 47
2019-03-27 14:00:00 17.1 35 Este 68 Este 0 -- -- 48
2019-03-27 13:00:00 17.4 35 Este 62 Este 0 -- -- 45
2019-03-27 12:00:00 17.1 31 Este 57 Este 0 -- -- 51
2019-03-27 11:00:00 16.1 36 Este 67 Sudeste 0 -- -- 56
2019-03-27 10:00:00 15.2 30 Este 58 Este 0 -- -- 59
2019-03-27 09:00:00 14.5 30 Este 61 Sudeste 0 -- -- 62
2019-03-27 08:00:00 13.8 31 Sudeste 64 Este 0 -- -- 63
2019-03-27 07:00:00 13.6 32 Este 56 Este 0 -- -- 65
2019-03-27 06:00:00 13.8 31 Este 68 Sudeste 0 -- -- 64
2019-03-27 05:00:00 13.8 27 Sudeste 62 Sudeste 0 -- -- 66
2019-03-27 04:00:00 14.1 29 Sudeste 63 Sudeste 0 -- -- 63
2019-03-27 03:00:00 14.4 37 Sudeste 75 Sudeste 0 -- -- 64
2019-03-27 02:00:00 14.5 30 Sudeste 56 Este 0 -- -- 63
2019-03-27 01:00:00 14.8 28 Sudeste 52 Este 0 -- -- 61
2019-03-27 00:00:00 15.1 30 Sudeste 57 Este 0 -- -- 57
2019-03-26 23:00:00 15.2 27 Este 62 Este 0 -- -- 61
2019-03-26 22:00:00 15.7 27 Sudeste 54 Este 0 -- -- 71
2019-03-26 21:00:00 15.6 27 Sudeste 51 Sudeste 0 -- -- 74
2019-03-26 20:00:00 15.9 22 Sudeste 44 Sudeste 0 -- -- 74
2019-03-26 19:00:00 16 16 Sudeste 46 Este 0 -- -- 74
2019-03-26 18:00:00 16.6 18 Sudeste 39 Sudeste 0 -- -- 69
2019-03-26 17:00:00 17 16 Sudeste 46 Sudeste 0 -- -- 68
2019-03-26 16:00:00 17.9 21 Sudeste 51 Sudeste 0 -- -- 59
2019-03-26 15:00:00 18.7 26 Este 50 Este 0 -- -- 51
2019-03-26 14:00:00 18.8 21 Sudeste 45 Este 0 -- -- 50
2019-03-26 13:00:00 18.4 22 Sudeste 48 Este 0 -- -- 55
2019-03-26 12:00:00 19.7 22 Sudeste 50 Sudeste 0 -- -- 52
2019-03-26 11:00:00 18.8 24 Sudeste 51 Sudeste 0 -- -- 53
2019-03-26 10:00:00 19.1 24 Este 56 Sudeste 0 -- -- 51
2019-03-26 09:00:00 18 10 Sudeste 27 Sudeste 0 -- -- 56
2019-03-26 08:00:00 16.2 10 Sudeste 24 Sudeste 0 -- -- 60
2019-03-26 07:00:00 16.2 9 Sudeste 31 Sudeste 0 -- -- 59
2019-03-26 06:00:00 16.5 14 Sudeste 24 Sudeste 0 -- -- 58
2019-03-26 05:00:00 16.3 14 Sudeste 36 Este 0 -- -- 62
2019-03-26 04:00:00 16.5 8 Sudeste 33 Este 0 -- -- 62
2019-03-26 03:00:00 16.5 15 Sudeste 33 Este 0 -- -- 63
2019-03-26 02:00:00 16.7 14 Sudeste 35 Este 0 -- -- 62
2019-03-26 01:00:00 16.9 15 Sudeste 30 Sudeste 0 -- -- 61
2019-03-26 00:00:00 16.6 12 Sudeste 30 Este 0 -- -- 62
2019-03-25 23:00:00 16.4 10 Sudeste 27 Este 0 -- -- 64
2019-03-25 22:00:00 16 10 Sudeste 30 Sudeste 0 -- -- 67
2019-03-25 21:00:00 16.1 12 Sudeste 21 Sudeste 0 -- -- 68
2019-03-25 20:00:00 15.8 9 Sudeste 23 Este 0 -- -- 71
2019-03-25 19:00:00 16.9 13 Sudeste 30 Sur 0 -- -- 66
2019-03-25 18:00:00 18.1 15 Sudeste 45 Sudeste 0 -- -- 61
2019-03-25 17:00:00 18.6 21 Este 46 Este 0 -- -- 58
2019-03-25 16:00:00 18.9 19 Sudeste 41 Sudeste 0 -- -- 61
2019-03-25 15:00:00 18.9 21 Sudeste 51 Sudeste 0 -- -- 62
2019-03-25 14:00:00 18.9 27 Sudeste 51 Sudeste 0 -- -- 56
2019-03-25 13:00:00 19.2 23 Este 45 Sudeste 0 -- -- 55
2019-03-25 12:00:00 18.9 24 Sudeste 46 Este 0 -- -- 56
2019-03-25 11:00:00 18.2 23 Este 45 Este 0 -- -- 59
2019-03-25 10:00:00 18 20 Este 38 Sudeste 0 -- -- 60
2019-03-25 09:00:00 16.9 15 Sudeste 28 Sudeste 0 -- -- 64
2019-03-25 08:00:00 15.6 11 Sudeste 24 Este 0 -- -- 68
2019-03-25 07:00:00 15.1 8 Sudeste 21 Sudeste 0 -- -- 70
2019-03-25 06:00:00 14.6 6 Sudeste 23 Sudeste 0 -- -- 74
2019-03-25 05:00:00 15.2 12 Este 24 Sudeste 0 -- -- 71
2019-03-25 04:00:00 15.4 13 Sudeste 25 Sudeste 0 -- -- 70
2019-03-25 03:00:00 14.9 8 Sudeste 18 Sudeste 0 -- -- 73
2019-03-25 02:00:00 15 11 Sudeste 26 Sudeste 0 -- -- 75
2019-03-25 01:00:00 15 11 Este 26 Este 0 -- -- 74
2019-03-25 00:00:00 15.6 13 Este 33 Este 0 -- -- 71